Time;durP1;ratioP1;P1;durP2;ratioP2;P2;SDS_P1;SDS_P2;PMS_P1;PMS_P2;Temp;Humidity;BMP_temperature;BMP_pressure;BME280_temperature;BME280_humidity;BME280_pressure;Samples;Min_cycle;Max_cycle;Signal;HPM_P1;HPM_P2
2023/09/19 00:01:01;;;;;;;7.57;2.10;;;14.60;99.90;;;;;;6190772;23;20099;-89
2023/09/19 00:03:28;;;;;;;7.88;2.05;;;14.60;99.90;;;;;;6189087;23;20020;-89
2023/09/19 00:05:55;;;;;;;7.07;1.67;;;14.50;99.90;;;;;;6215409;23;20020;-89
2023/09/19 00:08:24;;;;;;;8.18;1.90;;;15.30;99.90;;;;;;6190534;23;20044;-90
2023/09/19 00:10:50;;;;;;;7.60;2.08;;;14.40;99.90;;;;;;6188916;23;20440;-90
2023/09/19 00:13:16;;;;;;;6.53;1.75;;;15.50;99.90;;;;;;6190957;23;20051;-89
2023/09/19 00:15:51;;;;;;;9.30;1.88;;;15.30;99.90;;;;;;6191254;23;20012;-90
2023/09/19 00:18:24;;;;;;;7.53;1.73;;;15.00;99.90;;;;;;6184996;23;20433;-89
2023/09/19 00:20:51;;;;;;;8.10;1.70;;;15.10;99.90;;;;;;6184672;23;20013;-90
2023/09/19 00:23:24;;;;;;;7.72;1.90;;;14.00;99.90;;;;;;6185032;23;20087;-90
2023/09/19 00:26:00;;;;;;;8.75;1.83;;;14.90;99.90;;;;;;6183594;23;20346;-89
2023/09/19 00:28:26;;;;;;;7.68;1.85;;;13.90;99.90;;;;;;6184566;23;20083;-90
2023/09/19 00:30:55;;;;;;;7.50;1.80;;;13.90;99.90;;;;;;6183987;23;20013;-90
2023/09/19 00:33:22;;;;;;;10.60;2.00;;;13.80;99.90;;;;;;6195453;23;20012;-89
2023/09/19 00:36:13;;;;;;;10.45;1.98;;;13.70;99.90;;;;;;6212636;23;20004;-89
2023/09/19 00:38:44;;;;;;;7.55;2.10;;;13.70;99.90;;;;;;6186537;23;20060;-89
2023/09/19 00:41:15;;;;;;;8.15;1.85;;;13.60;99.90;;;;;;6186553;23;20017;-89
2023/09/19 00:43:53;;;;;;;6.75;1.80;;;13.60;99.90;;;;;;6184165;23;20468;-89
2023/09/19 00:46:19;;;;;;;9.23;2.35;;;13.60;99.90;;;;;;6182777;23;20350;-90
2023/09/19 00:49:08;;;;;;;10.95;2.25;;;13.90;99.90;;;;;;6184303;23;20021;-90
2023/09/19 00:51:47;;;;;;;13.05;2.92;;;13.60;99.90;;;;;;6184573;23;20442;-89
2023/09/19 00:54:28;;;;;;;11.38;2.80;;;13.60;99.90;;;;;;6158334;23;20020;-90
2023/09/19 00:57:00;;;;;;;11.27;2.90;;;13.60;99.90;;;;;;6183883;23;20023;-90
2023/09/19 01:02:02;;;;;;;13.40;3.30;;;13.60;99.90;;;;;;6204005;22;20353;-91
2023/09/19 01:04:29;;;;;;;11.45;2.33;;;13.60;99.90;;;;;;6189184;23;20058;-90
2023/09/19 01:06:55;;;;;;;11.48;2.60;;;13.70;99.90;;;;;;6188240;23;20099;-90
2023/09/19 01:09:26;;;;;;;9.43;2.60;;;14.30;99.90;;;;;;6189865;23;20337;-90
2023/09/19 01:12:10;;;;;;;13.50;2.67;;;13.80;99.90;;;;;;6188820;23;20377;-90
2023/09/19 01:15:14;;;;;;;10.37;2.50;;;13.70;99.90;;;;;;6188598;23;20084;-90
2023/09/19 01:18:26;;;;;;;15.25;3.00;;;13.70;99.90;;;;;;6188876;23;20066;-90
2023/09/19 01:21:40;;;;;;;14.25;2.88;;;13.60;99.90;;;;;;6187595;23;20453;-90
2023/09/19 01:24:49;;;;;;;11.18;2.90;;;13.70;99.90;;;;;;6189543;23;20174;-90
2023/09/19 01:30:32;;;;;;;12.55;3.33;;;13.60;99.90;;;;;;6214527;23;20138;-89
2023/09/19 01:33:10;;;;;;;13.10;3.00;;;13.60;99.90;;;;;;6130624;23;20020;-89
2023/09/19 01:35:58;;;;;;;15.80;3.70;;;13.60;99.90;;;;;;6187563;23;20017;-90
2023/09/19 01:38:24;;;;;;;14.95;3.55;;;13.60;99.90;;;;;;6188412;23;20392;-89
2023/09/19 01:41:14;;;;;;;14.50;3.80;;;13.60;99.90;;;;;;6188504;23;20013;-89
2023/09/19 01:44:03;;;;;;;14.48;3.65;;;13.70;99.90;;;;;;6188774;23;20017;-90
2023/09/19 01:46:50;;;;;;;12.82;3.90;;;14.70;99.90;;;;;;6188426;23;20314;-90
2023/09/19 01:49:49;;;;;;;12.75;3.42;;;13.20;99.90;;;;;;6188568;23;20052;-89
2023/09/19 01:52:19;;;;;;;14.75;4.03;;;13.40;99.90;;;;;;6188861;23;20095;-89
2023/09/19 01:55:10;;;;;;;12.80;3.72;;;13.50;99.90;;;;;;6170839;23;20024;-89
2023/09/19 01:58:04;;;;;;;15.68;3.75;;;14.50;99.90;;;;;;6188637;23;20342;-89
2023/09/19 02:00:43;;;;;;;;;;;13.50;99.90;;;;;;6190319;23;20020;-89
2023/09/19 02:03:12;;;;;;;14.85;3.60;;;13.50;99.90;;;;;;6187291;23;19995;-89
2023/09/19 02:05:39;;;;;;;14.40;3.50;;;14.50;99.90;;;;;;6188657;23;20101;-89
2023/09/19 02:08:08;;;;;;;10.75;3.58;;;13.60;99.90;;;;;;6193260;23;20337;-90
2023/09/19 02:10:34;;;;;;;13.98;3.47;;;13.40;99.90;;;;;;6214510;23;20388;-91
2023/09/19 02:13:04;;;;;;;12.98;3.75;;;13.40;99.90;;;;;;6204095;23;20018;-88
2023/09/19 02:15:32;;;;;;;12.95;2.97;;;13.40;99.90;;;;;;6214948;23;20008;-90
2023/09/19 02:18:00;;;;;;;13.82;3.20;;;13.40;99.90;;;;;;6193004;23;20040;-91
2023/09/19 02:20:29;;;;;;;14.63;3.10;;;14.00;99.90;;;;;;6190380;23;20013;-90
2023/09/19 02:23:00;;;;;;;11.05;3.40;;;13.30;99.90;;;;;;6188924;23;20021;-91
2023/09/19 02:25:30;;;;;;;12.43;3.83;;;13.80;99.90;;;;;;6188028;23;20027;-90
2023/09/19 02:28:02;;;;;;;14.35;3.40;;;13.20;99.90;;;;;;6188404;23;20017;-90
2023/09/19 02:30:36;;;;;;;10.15;3.28;;;13.30;99.90;;;;;;6187824;23;20103;-91
2023/09/19 02:33:01;;;;;;;15.18;3.97;;;13.20;99.90;;;;;;6188749;23;20087;-91
2023/09/19 02:35:35;;;;;;;13.32;3.40;;;13.20;99.90;;;;;;6188614;23;20055;-91
2023/09/19 02:38:00;;;;;;;14.77;3.20;;;13.50;99.90;;;;;;6187937;23;20020;-90
2023/09/19 02:41:17;;;;;;;15.30;3.10;;;13.20;99.90;;;;;;6188780;23;20118;-91
2023/09/19 02:43:43;;;;;;;11.60;3.47;;;12.40;99.90;;;;;;6187420;23;20016;-91
2023/09/19 02:46:14;;;;;;;13.63;3.33;;;13.10;99.90;;;;;;6183541;23;20028;-90
2023/09/19 02:48:40;;;;;;;15.52;3.50;;;14.40;99.90;;;;;;6158858;23;20021;-91
2023/09/19 02:51:09;;;;;;;12.63;3.42;;;13.60;99.90;;;;;;6159291;23;20036;-90
2023/09/19 02:53:37;;;;;;;12.63;3.25;;;13.10;99.90;;;;;;6157465;23;20017;-90
2023/09/19 02:56:11;;;;;;;11.40;3.00;;;13.10;99.90;;;;;;6159745;23;20453;-91
2023/09/19 02:58:53;;;;;;;13.93;3.45;;;14.20;99.90;;;;;;6159273;23;20100;-91
2023/09/19 03:01:28;;;;;;;12.70;2.90;;;14.10;99.90;;;;;;6157904;23;20025;-91
2023/09/19 03:04:03;;;;;;;11.40;3.10;;;14.00;99.90;;;;;;6158239;23;20017;-90
2023/09/19 03:06:32;;;;;;;14.93;3.63;;;13.00;99.90;;;;;;6162630;23;20039;-90
2023/09/19 03:09:49;;;;;;;13.13;2.90;;;13.10;99.90;;;;;;6187914;23;20075;-91
2023/09/19 03:12:16;;;;;;;12.43;2.95;;;13.10;99.90;;;;;;6187773;23;20017;-90
2023/09/19 03:14:50;;;;;;;15.63;3.20;;;13.00;99.90;;;;;;6187653;23;20044;-89
2023/09/19 03:17:28;;;;;;;10.43;3.05;;;13.90;99.90;;;;;;6188797;23;20104;-91
2023/09/19 03:20:00;;;;;;;15.73;3.15;;;13.00;99.90;;;;;;6186937;23;20128;-91
2023/09/19 03:22:31;;;;;;;11.30;3.08;;;13.00;99.90;;;;;;6188762;23;20457;-90
2023/09/19 03:25:07;;;;;;;10.07;2.78;;;14.30;99.90;;;;;;6187833;23;20021;-90
2023/09/19 03:27:36;;;;;;;13.75;3.08;;;12.90;99.90;;;;;;6187953;23;20320;-90
2023/09/19 03:30:08;;;;;;;14.52;3.20;;;13.00;99.90;;;;;;6187952;23;20017;-90
2023/09/19 03:32:37;;;;;;;10.55;3.35;;;12.80;99.90;;;;;;6187702;23;20017;-90
2023/09/19 03:35:13;;;;;;;11.73;3.10;;;13.80;99.90;;;;;;6187387;23;20017;-90
2023/09/19 03:37:40;;;;;;;10.05;2.90;;;13.80;99.90;;;;;;6187542;23;20017;-90
2023/09/19 03:40:12;;;;;;;15.65;4.32;;;13.00;99.90;;;;;;6187654;23;20128;-90
2023/09/19 03:42:41;;;;;;;10.52;2.72;;;12.90;99.90;;;;;;6180423;23;20017;-90
2023/09/19 03:45:15;;;;;;;11.35;2.75;;;13.00;99.90;;;;;;6183027;23;20021;-91
2023/09/19 03:47:47;;;;;;;;;;;13.00;99.90;;;;;;6183888;23;20013;-90
2023/09/19 03:50:21;;;;;;;10.57;2.55;;;13.60;99.90;;;;;;6184018;23;19923;-90
2023/09/19 03:52:47;;;;;;;11.75;2.80;;;13.10;99.90;;;;;;6182695;23;20329;-91
2023/09/19 03:55:19;;;;;;;10.93;2.63;;;14.10;99.90;;;;;;6188670;23;20041;-90
2023/09/19 03:57:50;;;;;;;12.43;2.70;;;13.20;99.90;;;;;;6188331;23;20514;-91
2023/09/19 04:00:24;;;;;;;12.73;2.63;;;13.20;99.90;;;;;;6188688;23;20008;-90
2023/09/19 04:02:53;;;;;;;13.30;2.95;;;13.30;99.90;;;;;;6187044;23;20021;-89
2023/09/19 04:05:37;;;;;;;10.70;2.95;;;13.30;99.90;;;;;;6187639;23;20092;-91
2023/09/19 04:08:08;;;;;;;12.48;3.13;;;13.40;99.90;;;;;;6187714;23;20016;-89
2023/09/19 04:10:44;;;;;;;14.02;3.30;;;13.40;99.90;;;;;;6186987;23;20016;-88
2023/09/19 04:13:22;;;;;;;13.43;3.50;;;13.40;99.90;;;;;;6188282;23;20012;-89
2023/09/19 04:15:53;;;;;;;10.10;2.72;;;13.30;99.90;;;;;;6187617;23;20016;-89
2023/09/19 04:18:26;;;;;;;13.18;3.50;;;13.40;99.90;;;;;;6187993;23;20095;-90
2023/09/19 04:21:07;;;;;;;11.55;3.13;;;13.40;99.90;;;;;;6188443;23;20021;-89
2023/09/19 04:23:44;;;;;;;11.75;3.13;;;13.60;99.90;;;;;;6188749;23;20082;-90
2023/09/19 04:26:13;;;;;;;12.68;3.38;;;13.10;99.90;;;;;;6189898;23;20021;-90
2023/09/19 04:28:48;;;;;;;12.70;3.88;;;13.60;99.90;;;;;;6189237;23;20021;-90
2023/09/19 04:31:29;;;;;;;13.57;3.55;;;13.60;99.90;;;;;;6189348;23;20087;-90
2023/09/19 04:34:00;;;;;;;11.98;3.00;;;14.70;99.90;;;;;;6190210;23;20012;-90
2023/09/19 04:36:34;;;;;;;14.88;3.05;;;13.90;99.90;;;;;;6190686;23;20017;-89
2023/09/19 04:39:18;;;;;;;13.30;3.38;;;14.20;99.90;;;;;;6189883;23;20017;-89
2023/09/19 04:41:50;;;;;;;;;;;13.70;99.90;;;;;;6190587;23;20100;-87
2023/09/19 04:44:21;;;;;;;13.75;4.63;;;14.00;99.90;;;;;;6187948;23;19926;-89
2023/09/19 04:47:03;;;;;;;14.23;3.83;;;13.40;99.90;;;;;;6189793;23;20012;-90
2023/09/19 04:49:37;;;;;;;16.02;2.95;;;13.40;99.90;;;;;;6190186;23;20012;-90
2023/09/19 04:52:19;;;;;;;17.13;3.40;;;13.30;99.90;;;;;;6189935;23;20148;-90
2023/09/19 04:59:10;;;;;;;13.13;3.08;;;13.40;99.90;;;;;;6191392;23;20091;-90
2023/09/19 05:01:55;;;;;;;12.88;3.10;;;13.20;99.90;;;;;;6196133;23;20023;-90
2023/09/19 05:07:11;;;;;;;13.07;3.08;;;13.50;99.90;;;;;;6215130;23;20020;-90
2023/09/19 05:09:46;;;;;;;14.20;3.35;;;13.70;99.90;;;;;;6190281;23;20017;-90
2023/09/19 05:12:25;;;;;;;13.50;2.85;;;13.40;99.90;;;;;;6217811;22;20031;-89
2023/09/19 05:15:03;;;;;;;13.70;3.13;;;13.40;99.90;;;;;;6198649;23;20008;-89
2023/09/19 05:17:50;;;;;;;15.63;3.30;;;13.40;99.90;;;;;;6192215;23;20044;-89
2023/09/19 05:20:29;;;;;;;16.48;3.28;;;13.50;99.90;;;;;;6188035;23;20386;-86
2023/09/19 05:23:36;;;;;;;12.13;2.70;;;12.90;99.90;;;;;;6189095;23;20017;-87
2023/09/19 05:26:16;;;;;;;14.32;2.90;;;13.50;99.90;;;;;;6041142;23;20075;-88
2023/09/19 05:29:08;;;;;;;15.98;3.00;;;13.90;99.90;;;;;;6042030;23;20026;-88
2023/09/19 05:31:36;;;;;;;10.90;3.03;;;13.50;99.90;;;;;;6131421;23;20017;-87
2023/09/19 05:34:02;;;;;;;15.27;2.80;;;13.80;99.90;;;;;;6188438;23;20020;-87
2023/09/19 05:36:38;;;;;;;13.60;2.83;;;13.40;99.90;;;;;;6189021;23;20027;-87
2023/09/19 05:39:09;;;;;;;14.55;2.97;;;13.40;99.90;;;;;;6189564;23;20016;-87
2023/09/19 05:41:39;;;;;;;12.48;2.83;;;14.40;99.90;;;;;;6188531;23;20384;-86
2023/09/19 05:44:09;;;;;;;10.48;2.50;;;13.10;99.90;;;;;;6189810;23;20020;-86
2023/09/19 05:46:40;;;;;;;12.65;2.80;;;13.30;99.90;;;;;;6188635;23;20376;-86
2023/09/19 05:49:18;;;;;;;10.52;2.58;;;14.60;99.90;;;;;;6188026;23;20028;-87
2023/09/19 05:51:47;;;;;;;14.63;2.88;;;13.30;99.90;;;;;;6188833;23;20013;-88
2023/09/19 05:54:28;;;;;;;12.90;2.78;;;13.20;99.90;;;;;;6188926;23;20074;-88
2023/09/19 05:56:54;;;;;;;14.73;2.83;;;13.20;99.90;;;;;;6188788;23;20099;-86
2023/09/19 05:59:32;;;;;;;11.82;3.13;;;14.30;99.90;;;;;;6188526;23;20048;-85
2023/09/19 06:02:49;;;;;;;12.90;2.90;;;13.20;99.90;;;;;;6187635;23;20404;-86
2023/09/19 06:08:57;;;;;;;12.48;2.83;;;12.70;99.90;;;;;;6187090;23;20017;-85
2023/09/19 06:12:05;;;;;;;12.55;2.55;;;13.60;99.90;;;;;;6189002;23;20024;-85
2023/09/19 06:14:36;;;;;;;11.18;2.47;;;12.80;99.90;;;;;;6188676;23;20092;-86
2023/09/19 06:17:02;;;;;;;10.43;2.78;;;13.30;99.90;;;;;;6187648;23;20621;-84
2023/09/19 06:19:47;;;;;;;13.45;2.65;;;13.30;99.90;;;;;;6188607;23;20051;-85
2023/09/19 06:22:19;;;;;;;12.75;2.70;;;13.40;99.90;;;;;;6188551;23;20047;-85
2023/09/19 06:24:48;;;;;;;11.07;3.10;;;13.30;99.90;;;;;;6186514;23;20017;-86
2023/09/19 06:27:14;;;;;;;14.18;2.65;;;13.50;99.90;;;;;;6188145;23;20017;-84
2023/09/19 06:29:39;;;;;;;14.32;3.17;;;13.50;99.90;;;;;;6187446;23;20017;-88
2023/09/19 06:32:09;;;;;;;10.50;2.50;;;13.60;99.90;;;;;;6188491;23;20013;-83
2023/09/19 06:34:43;;;;;;;14.45;3.55;;;13.60;99.90;;;;;;6188020;23;20012;-85
2023/09/19 06:37:27;;;;;;;11.98;2.88;;;13.70;99.90;;;;;;6187838;23;20013;-86
2023/09/19 06:40:03;;;;;;;14.82;2.72;;;14.30;99.90;;;;;;6188871;23;20024;-86
2023/09/19 06:42:29;;;;;;;11.43;3.03;;;13.50;99.90;;;;;;6189101;23;20377;-86
2023/09/19 06:45:03;;;;;;;11.98;2.40;;;14.50;99.90;;;;;;6213851;23;20330;-86
2023/09/19 06:47:29;;;;;;;11.35;2.90;;;14.70;99.90;;;;;;6189208;23;20017;-86
2023/09/19 06:49:55;;;;;;;11.75;2.38;;;13.90;99.90;;;;;;6188451;23;20040;-86
2023/09/19 06:52:30;;;;;;;11.93;2.63;;;13.90;99.90;;;;;;6187860;23;20013;-85
2023/09/19 06:54:55;;;;;;;11.88;2.53;;;13.80;99.90;;;;;;6188549;23;20016;-86
2023/09/19 06:57:22;;;;;;;12.60;2.42;;;13.80;99.90;;;;;;6188293;23;20013;-86
2023/09/19 06:59:47;;;;;;;12.85;2.70;;;13.80;99.90;;;;;;6187517;23;20135;-86
2023/09/19 07:02:19;;;;;;;11.45;2.40;;;13.80;99.90;;;;;;6188377;23;20008;-86
2023/09/19 07:04:49;;;;;;;10.68;2.67;;;13.30;99.90;;;;;;6186468;23;20445;-86
2023/09/19 07:07:16;;;;;;;11.70;2.80;;;13.80;99.90;;;;;;6188664;23;20029;-84
2023/09/19 07:09:42;;;;;;;11.13;2.95;;;13.80;99.90;;;;;;6187962;23;20025;-85
2023/09/19 07:12:08;;;;;;;13.57;3.15;;;13.80;99.90;;;;;;6187702;23;20024;-86
2023/09/19 07:14:48;;;;;;;13.13;3.03;;;13.90;99.90;;;;;;6188345;23;20016;-86
2023/09/19 07:17:17;;;;;;;10.70;3.28;;;14.60;99.90;;;;;;6188517;23;20102;-86
2023/09/19 07:19:50;;;;;;;13.45;3.20;;;13.90;99.90;;;;;;6187406;23;20016;-84
2023/09/19 07:22:28;;;;;;;13.30;2.60;;;14.00;99.90;;;;;;6188376;23;20021;-85
2023/09/19 07:24:54;;;;;;;12.88;2.95;;;14.10;99.90;;;;;;6187929;23;20052;-86
2023/09/19 07:28:04;;;;;;;9.77;2.25;;;14.30;99.90;;;;;;6187723;23;20012;-86
2023/09/19 07:30:41;;;;;;;9.88;2.60;;;14.30;99.90;;;;;;6188457;23;20039;-86
2023/09/19 07:33:29;;;;;;;11.55;2.40;;;13.90;99.90;;;;;;6187757;23;20017;-87
2023/09/19 07:35:55;;;;;;;8.57;2.30;;;14.40;99.90;;;;;;6187181;23;20464;-84
2023/09/19 07:38:24;;;;;;;14.32;2.88;;;14.60;99.90;;;;;;6187955;23;20023;-85
2023/09/19 07:40:50;;;;;;;11.30;2.53;;;14.70;99.90;;;;;;6185866;23;20075;-86
2023/09/19 07:43:17;;;;;;;11.52;2.50;;;14.80;99.90;;;;;;6187720;23;20024;-85
2023/09/19 07:45:43;;;;;;;11.45;2.67;;;14.90;99.90;;;;;;6184075;23;20020;-85
2023/09/19 07:48:14;;;;;;;14.23;3.15;;;15.60;99.90;;;;;;6186185;23;20138;-85
2023/09/19 07:50:40;;;;;;;11.90;2.88;;;14.90;99.90;;;;;;6188308;23;20017;-85
2023/09/19 07:53:06;;;;;;;14.80;3.10;;;14.90;99.90;;;;;;6187939;23;20009;-86
2023/09/19 07:55:33;;;;;;;13.10;2.80;;;15.00;99.90;;;;;;6187129;23;20519;-86
2023/09/19 07:57:59;;;;;;;11.40;2.78;;;15.10;99.90;;;;;;6190164;23;20008;-85
2023/09/19 08:00:25;;;;;;;13.35;2.72;;;15.20;99.90;;;;;;6189137;23;20094;-84
2023/09/19 08:02:52;;;;;;;14.63;3.10;;;15.20;99.90;;;;;;6213249;23;20013;-86
2023/09/19 08:05:18;;;;;;;13.45;3.40;;;15.20;99.90;;;;;;6188286;23;20020;-87
2023/09/19 08:07:49;;;;;;;14.98;2.80;;;15.30;99.90;;;;;;6190347;23;20020;-85
2023/09/19 08:10:16;;;;;;;12.18;3.30;;;15.40;99.90;;;;;;6190133;23;20442;-86
2023/09/19 08:12:46;;;;;;;11.88;2.50;;;15.50;99.90;;;;;;6188996;23;20016;-86
2023/09/19 08:15:20;;;;;;;12.45;2.58;;;15.50;99.90;;;;;;6188423;23;20390;-85
2023/09/19 08:17:47;;;;;;;11.57;2.45;;;16.00;99.90;;;;;;6189498;23;20091;-86
2023/09/19 08:20:17;;;;;;;13.65;2.88;;;15.50;99.90;;;;;;6188560;23;20020;-86
2023/09/19 08:22:45;;;;;;;12.98;2.65;;;15.50;99.90;;;;;;6188465;23;20009;-86
2023/09/19 08:25:11;;;;;;;10.15;2.42;;;15.50;99.90;;;;;;6189176;23;20019;-86
2023/09/19 08:27:37;;;;;;;10.93;2.70;;;15.50;99.90;;;;;;6188429;23;20389;-87
2023/09/19 08:30:03;;;;;;;8.93;2.30;;;15.70;99.90;;;;;;6187307;23;20039;-85
2023/09/19 08:32:29;;;;;;;9.73;2.55;;;15.70;99.90;;;;;;6163352;23;20416;-87
2023/09/19 08:34:54;;;;;;;10.90;2.63;;;16.30;99.90;;;;;;6186337;23;20055;-85
2023/09/19 08:37:21;;;;;;;15.48;2.92;;;15.80;99.90;;;;;;6187632;23;20020;-87
2023/09/19 08:39:49;;;;;;;14.02;2.70;;;15.80;99.90;;;;;;6188700;23;20021;-86
2023/09/19 08:42:16;;;;;;;11.95;2.70;;;16.30;99.90;;;;;;6189512;23;20016;-86
2023/09/19 08:44:43;;;;;;;12.77;2.70;;;16.30;99.90;;;;;;6188019;23;20353;-85
2023/09/19 08:47:13;;;;;;;10.73;2.83;;;15.80;99.90;;;;;;6188792;23;20463;-87
2023/09/19 08:50:11;;;;;;;11.00;2.67;;;16.10;99.90;;;;;;6188899;23;20445;-86
2023/09/19 08:52:42;;;;;;;15.57;2.75;;;15.80;99.90;;;;;;6188838;23;20095;-87
2023/09/19 08:55:12;;;;;;;12.98;3.25;;;15.90;99.90;;;;;;6189347;23;20017;-86
2023/09/19 08:57:42;;;;;;;13.30;2.90;;;16.00;99.90;;;;;;6187674;23;20084;-86
2023/09/19 09:00:12;;;;;;;10.23;2.47;;;16.10;99.90;;;;;;6190108;23;20389;-85
2023/09/19 09:02:43;;;;;;;13.68;2.95;;;16.20;99.90;;;;;;6189107;23;20023;-86
2023/09/19 09:05:12;;;;;;;10.70;3.13;;;16.30;99.90;;;;;;6188341;23;20096;-86
2023/09/19 09:07:38;;;;;;;17.30;2.80;;;16.30;99.90;;;;;;6187861;23;20484;-87
2023/09/19 09:10:04;;;;;;;14.65;3.10;;;16.60;99.90;;;;;;6189123;23;20314;-86
2023/09/19 09:12:30;;;;;;;13.52;3.00;;;16.50;99.90;;;;;;6188086;23;20016;-84
2023/09/19 09:14:57;;;;;;;11.75;3.10;;;16.60;99.90;;;;;;6187503;23;20091;-85
2023/09/19 09:17:26;;;;;;;11.38;2.83;;;16.70;99.90;;;;;;6189003;23;20473;-85
2023/09/19 09:19:55;;;;;;;13.40;3.33;;;17.10;99.90;;;;;;6187363;23;20185;-86
2023/09/19 09:22:23;;;;;;;13.40;2.78;;;16.80;99.90;;;;;;6191234;23;20024;-86
2023/09/19 09:25:04;;;;;;;11.43;2.45;;;16.80;99.90;;;;;;6188160;23;20028;-87
2023/09/19 09:27:32;;;;;;;10.77;2.65;;;16.80;99.90;;;;;;6188385;23;20024;-86
2023/09/19 09:29:58;;;;;;;13.70;2.88;;;16.90;99.90;;;;;;6188783;23;20131;-86
2023/09/19 09:32:38;;;;;;;13.38;2.63;;;17.00;99.90;;;;;;6188069;23;20024;-86
2023/09/19 09:35:14;;;;;;;13.13;2.78;;;17.10;99.90;;;;;;6189023;23;20019;-85
2023/09/19 09:37:43;;;;;;;14.43;2.67;;;17.10;99.90;;;;;;6187840;23;20016;-85
2023/09/19 09:42:41;;;;;;;13.88;2.88;;;17.30;99.90;;;;;;6185815;23;20025;-85
2023/09/19 09:45:15;;;;;;;14.48;2.92;;;17.40;99.90;;;;;;6187716;23;20027;-84
2023/09/19 09:47:49;;;;;;;8.95;2.50;;;17.50;99.90;;;;;;6187253;23;20008;-85
2023/09/19 09:50:38;;;;;;;14.50;2.90;;;17.50;99.90;;;;;;6188584;23;20029;-86
2023/09/19 09:53:07;;;;;;;12.82;2.65;;;17.50;99.90;;;;;;6188652;23;20393;-84
2023/09/19 09:56:09;;;;;;;11.45;2.60;;;17.50;99.90;;;;;;6187457;23;20024;-86
2023/09/19 09:58:48;;;;;;;13.15;2.85;;;17.70;99.90;;;;;;6179829;23;20087;-84
2023/09/19 10:01:15;;;;;;;12.50;2.30;;;17.70;99.90;;;;;;6188006;23;20025;-85
2023/09/19 10:03:49;;;;;;;13.82;2.80;;;18.20;99.90;;;;;;6188289;23;20012;-85
2023/09/19 10:06:25;;;;;;;10.70;2.70;;;17.80;99.90;;;;;;6188328;23;20016;-85
2023/09/19 10:09:11;;;;;;;11.93;2.80;;;17.90;99.90;;;;;;6187113;23;20062;-85
2023/09/19 10:11:54;;;;;;;11.07;2.45;;;17.80;99.90;;;;;;6188718;23;20043;-85
2023/09/19 10:14:23;;;;;;;14.50;3.35;;;18.00;99.90;;;;;;6188804;23;20064;-84
2023/09/19 10:16:49;;;;;;;14.25;3.03;;;17.90;99.90;;;;;;6186817;23;20799;-85
2023/09/19 10:19:28;;;;;;;14.18;3.35;;;18.00;99.90;;;;;;6188509;23;20017;-85
2023/09/19 10:21:56;;;;;;;12.82;2.80;;;18.00;99.90;;;;;;6187097;23;20071;-85
2023/09/19 10:24:24;;;;;;;10.73;2.97;;;18.00;99.90;;;;;;6187407;23;20017;-86
2023/09/19 10:26:51;;;;;;;10.98;2.83;;;18.20;99.90;;;;;;6188584;23;20310;-84
2023/09/19 10:29:19;;;;;;;14.10;3.08;;;18.20;99.90;;;;;;6187511;23;20013;-86
2023/09/19 10:31:47;;;;;;;12.38;3.53;;;18.50;99.90;;;;;;6188175;23;20013;-90
2023/09/19 10:34:17;;;;;;;13.40;3.28;;;18.50;99.90;;;;;;6186742;23;20016;-82
2023/09/19 10:36:46;;;;;;;16.13;3.00;;;18.40;99.90;;;;;;6186612;23;20028;-82
2023/09/19 10:39:19;;;;;;;11.95;2.70;;;18.40;99.90;;;;;;6187559;23;20016;-81
2023/09/19 10:41:58;;;;;;;11.80;2.75;;;18.30;99.90;;;;;;6187618;23;20433;-82
2023/09/19 10:44:28;;;;;;;12.27;3.58;;;18.50;99.90;;;;;;6187062;23;20020;-82
2023/09/19 10:46:54;;;;;;;14.65;2.60;;;18.50;99.90;;;;;;6187432;23;20016;-82
2023/09/19 10:49:24;;;;;;;15.15;3.30;;;18.50;99.90;;;;;;6186593;23;20400;-82
2023/09/19 10:51:55;;;;;;;10.70;3.08;;;18.50;99.90;;;;;;6185533;23;20496;-82
2023/09/19 10:54:26;;;;;;;12.00;3.42;;;18.40;99.90;;;;;;6186824;23;20028;-83
2023/09/19 10:56:53;;;;;;;12.23;3.10;;;18.50;99.90;;;;;;6185062;23;20032;-82
2023/09/19 10:59:21;;;;;;;11.88;2.80;;;18.50;99.90;;;;;;6187775;23;20021;-81
2023/09/19 11:01:50;;;;;;;15.73;3.25;;;18.50;99.90;;;;;;6213570;23;20469;-82
2023/09/19 11:04:32;;;;;;;13.35;3.10;;;18.50;99.90;;;;;;6212269;23;20031;-82
2023/09/19 11:07:08;;;;;;;13.90;3.88;;;18.50;99.90;;;;;;6186638;23;20031;-81
2023/09/19 11:09:53;;;;;;;11.43;2.75;;;18.60;99.90;;;;;;6185587;23;20365;-82
2023/09/19 11:16:10;;;;;;;12.65;2.85;;;18.50;99.90;;;;;;6153132;23;20020;-84
2023/09/19 11:19:01;;;;;;;12.35;3.33;;;18.20;99.90;;;;;;6185901;23;20322;-81
2023/09/19 11:21:41;;;;;;;11.60;2.90;;;18.10;99.90;;;;;;6186062;23;20017;-84
2023/09/19 11:24:10;;;;;;;12.88;2.75;;;18.70;99.90;;;;;;6186873;23;20443;-81
2023/09/19 11:26:49;;;;;;;11.88;2.92;;;18.40;99.90;;;;;;6185474;23;20048;-83
2023/09/19 11:29:29;;;;;;;14.35;2.90;;;18.30;99.90;;;;;;6187158;23;20353;-80
2023/09/19 11:31:59;;;;;;;12.68;2.75;;;18.30;99.90;;;;;;6186335;23;20078;-80
2023/09/19 11:34:47;;;;;;;11.98;2.42;;;18.40;99.90;;;;;;6188663;23;20028;-82
2023/09/19 11:37:15;;;;;;;12.75;2.70;;;18.40;99.90;;;;;;6188447;23;20354;-83
2023/09/19 11:40:15;;;;;;;10.77;2.60;;;18.50;99.90;;;;;;6187730;23;20017;-83
2023/09/19 11:42:49;;;;;;;13.95;3.00;;;18.40;99.90;;;;;;6188714;23;20079;-82
2023/09/19 11:45:57;;;;;;;11.90;2.40;;;18.50;99.90;;;;;;6188809;23;20021;-83
2023/09/19 11:48:27;;;;;;;12.70;2.58;;;18.70;99.90;;;;;;6188220;23;20063;-84
2023/09/19 11:50:53;;;;;;;10.98;2.60;;;18.90;99.90;;;;;;6188256;23;20016;-83
2023/09/19 11:53:19;;;;;;;12.05;2.60;;;19.00;99.90;;;;;;6187834;23;20034;-84
2023/09/19 11:55:45;;;;;;;11.82;2.72;;;19.20;99.90;;;;;;6188360;23;20031;-82
2023/09/19 11:58:16;;;;;;;11.73;2.53;;;19.50;99.90;;;;;;6188837;23;20068;-86
2023/09/19 12:00:44;;;;;;;10.52;2.53;;;19.10;99.90;;;;;;6187398;23;20024;-81
2023/09/19 12:03:18;;;;;;;12.95;2.75;;;19.20;99.90;;;;;;6188481;23;20017;-84
2023/09/19 12:05:43;;;;;;;9.80;2.45;;;19.20;99.90;;;;;;6187813;23;20067;-81
2023/09/19 12:08:09;;;;;;;11.88;2.28;;;19.10;99.90;;;;;;6188077;23;20012;-82
2023/09/19 12:10:49;;;;;;;8.98;2.25;;;19.00;99.90;;;;;;6187997;23;20062;-82
2023/09/19 12:13:18;;;;;;;11.25;2.70;;;19.00;99.90;;;;;;6188715;23;20024;-81
2023/09/19 12:15:47;;;;;;;13.85;2.92;;;18.90;99.90;;;;;;6187171;23;20052;-81
2023/09/19 12:18:29;;;;;;;13.85;2.60;;;18.90;99.90;;;;;;6188322;23;20064;-84
2023/09/19 12:20:57;;;;;;;13.75;2.72;;;18.80;99.90;;;;;;6187775;23;20433;-84
2023/09/19 12:23:25;;;;;;;10.93;2.88;;;18.80;99.90;;;;;;6188593;23;20445;-83
2023/09/19 12:25:53;;;;;;;13.50;2.80;;;18.70;99.90;;;;;;6188645;23;20016;-85
2023/09/19 12:28:22;;;;;;;13.85;2.95;;;18.60;99.90;;;;;;6189159;23;20100;-81
2023/09/19 12:30:48;;;;;;;14.05;2.70;;;18.60;99.90;;;;;;6189607;23;20019;-82
2023/09/19 12:33:19;;;;;;;11.52;2.60;;;18.90;99.90;;;;;;6189880;23;20031;-84
2023/09/19 12:35:45;;;;;;;10.88;2.50;;;19.10;99.90;;;;;;6188604;23;20469;-84
2023/09/19 12:38:24;;;;;;;12.25;2.65;;;19.40;99.90;;;;;;6190232;23;20012;-84
2023/09/19 12:40:51;;;;;;;12.93;2.45;;;19.60;99.90;;;;;;6189369;23;20083;-83
2023/09/19 12:43:18;;;;;;;10.20;2.50;;;19.90;99.90;;;;;;6188851;23;20055;-83
2023/09/19 12:45:44;;;;;;;16.75;3.08;;;19.80;99.90;;;;;;6189301;23;20075;-83
2023/09/19 12:48:31;;;;;;;10.77;2.58;;;19.60;99.90;;;;;;6189873;23;20013;-87
2023/09/19 12:51:05;;;;;;;15.35;2.95;;;19.40;99.90;;;;;;6189069;23;20020;-83
2023/09/19 12:53:33;;;;;;;14.10;2.63;;;19.20;99.90;;;;;;6189235;23;20607;-83
2023/09/19 12:56:00;;;;;;;11.88;2.47;;;19.20;99.90;;;;;;6189504;23;20460;-87
2023/09/19 12:58:26;;;;;;;13.27;2.75;;;19.10;99.90;;;;;;6188158;23;20028;-87
2023/09/19 13:00:52;;;;;;;10.32;2.45;;;19.20;99.90;;;;;;6189340;23;20056;-86
2023/09/19 13:03:28;;;;;;;12.77;2.80;;;19.10;99.90;;;;;;6188472;23;20021;-83
2023/09/19 13:06:04;;;;;;;9.93;2.50;;;19.20;99.90;;;;;;6188284;23;20078;-84
2023/09/19 13:08:37;;;;;;;11.85;2.97;;;19.30;99.90;;;;;;6182455;23;20412;-84
2023/09/19 13:11:06;;;;;;;13.45;2.90;;;19.40;99.90;;;;;;6188500;23;20087;-83
2023/09/19 13:13:33;;;;;;;12.65;2.75;;;19.30;99.90;;;;;;6189222;23;20020;-86
2023/09/19 13:16:01;;;;;;;9.82;2.28;;;19.20;99.90;;;;;;6189435;23;20020;-84
2023/09/19 13:18:27;;;;;;;9.15;2.20;;;19.10;99.90;;;;;;6188291;23;20326;-83
2023/09/19 13:21:22;;;;;;;10.55;2.70;;;18.90;99.90;;;;;;6189257;23;20020;-84
2023/09/19 13:23:51;;;;;;;16.10;2.90;;;18.80;99.90;;;;;;6188692;23;20013;-83
2023/09/19 13:26:18;;;;;;;10.50;3.33;;;18.80;99.90;;;;;;6186827;23;20437;-83
2023/09/19 13:28:44;;;;;;;10.18;2.47;;;18.70;99.90;;;;;;6187763;23;20025;-83
2023/09/19 13:31:11;;;;;;;11.65;2.50;;;18.70;99.90;;;;;;6187703;23;20104;-83
2023/09/19 13:33:45;;;;;;;14.20;3.20;;;18.60;99.90;;;;;;6187229;23;20071;-83